Hiwassee, VA (24347)

4:08 PM EDT on August 31, 2015 (GMT -0400)
Blue Springs, Snowville | | Change Station
CLOSE
Current Station
Personal Weather Station
Location: Snowville, VA
Elevation: 2490 ft
Nearby Weather Stations

Elev 2490 ft 37.00 °N, 80.56 °W | Updated 3 seconds ago

Mostly Cloudy
Mostly Cloudy
78.6 °F
Feels Like 80 °F
N
1.0
Wind Variable Wind from North
Gusts 3.0 mph

Today
High -- | Low -- °F
--% Chance of Precip.
Yesterday
High -- | Low -- °F
Precip. -- in
6:52 AM 7:52 PM
Waning Gibbous, 94% visible
Pressure 30.16 in
Visibility 10.0 miles
Clouds Scattered Clouds 1800 ft
Scattered Clouds 2400 ft
Mostly Cloudy 5000 ft
Heat Index 80 °F
Dew Point 63 °F
Humidity 58%
Rainfall 0.00 in
Snow Depth Not available.
UV 4 out of 12
Pollen 8.70 out of 12
Air Quality Not available.
Flu Activity Not available.
METAR KPSK 311955Z AUTO 00000KT 10SM SCT018 SCT024 BKN050 28/16 A3016 RMK AO2 T02800156
Pressure 30.16 in
Visibility 10.0 miles
Clouds Scattered Clouds 1800 ft
Scattered Clouds 2400 ft
Mostly Cloudy 5000 ft
Heat Index 80 °F
Dew Point 63 °F
Humidity 58%
Rainfall 0.00 in
Snow Depth Not available.
UV 4 out of 12
Pollen 8.70 out of 12
Air Quality Not available.
Flu Activity Not available.
METAR KPSK 311955Z AUTO 00000KT 10SM SCT018 SCT024 BKN050 28/16 A3016 RMK AO2 T02800156

10-Day Weather Forecast

×

Almanac

Astronomy

Aug. 31, 2015 Rise Set
Actual Time
Civil Twilight
Nautical Twilight
Astronomical Twilight
Moon
Length of Visible Light
Length of Day
Tomorrow will be .
, % of the Moon is Illuminated

Today's Extremes

State Highs State Lows

Community

WunderPhotos

Upload Photos

1,851,351 photos uploaded!

WunderBlogs® & News

Nearby

Air Quality

  Air Quality AQ Index Pollutant
Not available.

Snow Depth

Station Depth Elevation

Earthquake Activity

City Distance Mag. Time & Date
Minimum magnitude displayed is 2.5.

Coastal Water Temperatures

Place Temperature

Stations

Nearby Weather Stations

Station Location Temp. Windchill Dew Point Humidity Wind Precip. Elev Updated Type